createdAt,value
2022-11-19T00:01:34.442Z,14.00
2022-11-19T00:04:02.236Z,12.40
2022-11-19T00:06:30.136Z,12.50
2022-11-19T00:08:58.155Z,13.23
2022-11-19T00:11:51.314Z,12.60
2022-11-19T00:14:19.286Z,12.40
2022-11-19T00:16:47.312Z,12.40
2022-11-19T00:19:15.541Z,12.13
2022-11-19T00:21:43.427Z,11.50
2022-11-19T00:24:11.383Z,13.00
2022-11-19T00:26:40.589Z,12.87
2022-11-19T00:29:08.415Z,13.03
2022-11-19T00:31:36.384Z,12.47
2022-11-19T00:34:04.502Z,12.43
2022-11-19T00:36:32.444Z,12.83
2022-11-19T00:39:00.223Z,12.20
2022-11-19T00:41:28.120Z,13.50
2022-11-19T00:43:57.276Z,12.80
2022-11-19T00:46:27.160Z,12.00
2022-11-19T00:48:56.810Z,12.37
2022-11-19T00:51:26.676Z,12.37
2022-11-19T00:53:54.851Z,12.63
2022-11-19T00:56:25.898Z,13.87
2022-11-19T00:58:54.012Z,12.40
2022-11-19T01:01:24.792Z,13.00
2022-11-19T01:03:53.225Z,12.70
2022-11-19T01:06:23.091Z,12.67
2022-11-19T01:08:52.237Z,13.30
2022-11-19T01:11:23.179Z,11.97
2022-11-19T01:13:51.411Z,12.77
2022-11-19T01:16:21.693Z,13.50
2022-11-19T01:18:51.659Z,13.97
2022-11-19T01:21:21.917Z,13.80
2022-11-19T01:23:50.325Z,13.00
2022-11-19T01:26:18.736Z,12.00
2022-11-19T01:28:47.255Z,14.63
2022-11-19T01:31:16.778Z,12.67
2022-11-19T01:33:45.184Z,12.10
2022-11-19T01:36:17.076Z,13.03
2022-11-19T01:38:50.472Z,14.13
2022-11-19T01:41:18.799Z,14.63
2022-11-19T01:43:48.076Z,13.40
2022-11-19T01:46:19.142Z,13.37
2022-11-19T01:48:52.603Z,12.60
2022-11-19T01:51:25.941Z,12.13
2022-11-19T01:53:58.452Z,14.83
2022-11-19T01:56:26.966Z,11.87
2022-11-19T01:58:58.665Z,12.60
2022-11-19T02:01:26.685Z,13.57
2022-11-19T02:03:54.757Z,13.23
2022-11-19T02:06:23.971Z,12.70
2022-11-19T02:08:52.966Z,12.00
2022-11-19T02:11:47.696Z,12.60
2022-11-19T02:14:33.317Z,12.70
2022-11-19T02:17:10.971Z,12.80
2022-11-19T02:20:07.397Z,11.00
2022-11-19T02:22:58.818Z,13.00
2022-11-19T02:25:38.565Z,11.40
2022-11-19T02:28:25.771Z,12.40
2022-11-19T02:31:00.051Z,11.20
2022-11-19T02:33:36.422Z,11.07
2022-11-19T02:36:11.010Z,11.97
2022-11-19T02:38:43.268Z,12.03
2022-11-19T02:41:36.805Z,12.47
2022-11-19T02:44:29.520Z,11.40
2022-11-19T02:47:00.410Z,12.43
2022-11-19T02:49:32.854Z,11.50
2022-11-19T02:52:01.538Z,14.07
2022-11-19T02:54:29.720Z,13.20
2022-11-19T02:56:59.733Z,12.87
2022-11-19T02:59:51.956Z,11.50
2022-11-19T03:02:40.595Z,11.77
2022-11-19T03:05:12.591Z,10.73
2022-11-19T03:07:40.907Z,10.70
2022-11-19T03:10:11.664Z,11.20
2022-11-19T03:12:49.345Z,10.27
2022-11-19T03:15:46.180Z,10.77
2022-11-19T03:18:20.953Z,10.43
2022-11-19T03:20:53.662Z,11.37
2022-11-19T03:23:24.170Z,10.50
2022-11-19T03:25:57.445Z,11.60
2022-11-19T03:28:29.767Z,10.63
2022-11-19T03:31:00.256Z,10.33
2022-11-19T03:33:33.248Z,11.17
2022-11-19T03:36:05.364Z,9.93
2022-11-19T03:38:37.676Z,11.10
2022-11-19T03:41:07.360Z,11.23
2022-11-19T03:43:39.396Z,10.70
2022-11-19T03:46:14.227Z,11.37
2022-11-19T03:48:44.965Z,10.17
2022-11-19T03:51:16.945Z,11.00
2022-11-19T03:53:45.161Z,11.40
2022-11-19T03:56:16.404Z,10.60
2022-11-19T03:58:47.848Z,11.37
2022-11-19T04:01:16.312Z,10.97
2022-11-19T04:04:05.567Z,11.87
2022-11-19T04:06:33.427Z,10.13
2022-11-19T04:09:01.299Z,10.97
2022-11-19T04:11:29.169Z,10.83
2022-11-19T04:13:56.967Z,11.87
2022-11-19T04:16:24.896Z,10.90
2022-11-19T04:18:54.079Z,10.77
2022-11-19T04:21:22.118Z,10.50
2022-11-19T04:23:49.952Z,10.60
2022-11-19T04:26:17.806Z,12.40
2022-11-19T04:28:45.695Z,11.97
2022-11-19T04:31:17.813Z,11.00
2022-11-19T04:33:46.045Z,10.57
2022-11-19T04:36:15.232Z,11.83
2022-11-19T04:38:43.041Z,10.93
2022-11-19T04:41:11.501Z,9.67
2022-11-19T04:43:39.674Z,10.50
2022-11-19T04:46:07.577Z,11.73
2022-11-19T04:48:35.374Z,10.23
2022-11-19T04:51:03.210Z,10.80
2022-11-19T04:53:32.371Z,11.80
2022-11-19T04:56:00.194Z,11.27
2022-11-19T04:58:28.033Z,10.87
2022-11-19T05:00:55.845Z,11.10
2022-11-19T05:03:23.759Z,11.60
2022-11-19T05:05:51.568Z,10.60
2022-11-19T05:08:19.414Z,11.47
2022-11-19T05:10:48.806Z,13.37
2022-11-19T05:13:16.742Z,10.30
2022-11-19T05:15:44.610Z,11.27
2022-11-19T05:18:13.155Z,10.30
2022-11-19T05:20:41.038Z,11.23
2022-11-19T05:23:08.866Z,10.73
2022-11-19T05:25:36.754Z,10.70
2022-11-19T05:28:06.462Z,11.33
2022-11-19T05:30:34.357Z,10.57
2022-11-19T05:33:02.287Z,10.90
2022-11-19T05:35:30.104Z,10.57
2022-11-19T05:37:57.947Z,13.10
2022-11-19T05:40:25.906Z,11.20
2022-11-19T05:42:53.848Z,11.33
2022-11-19T05:45:23.008Z,10.40
2022-11-19T05:47:55.705Z,10.83
2022-11-19T05:50:23.736Z,12.03
2022-11-19T05:52:51.672Z,9.63
2022-11-19T05:55:20.662Z,11.40
2022-11-19T05:57:48.516Z,11.63
2022-11-19T06:00:17.664Z,11.20
2022-11-19T06:02:46.924Z,11.60
2022-11-19T06:05:15.298Z,10.30
2022-11-19T06:07:43.189Z,11.00
2022-11-19T06:10:11.678Z,10.37
2022-11-19T06:12:45.175Z,10.57
2022-11-19T06:15:13.846Z,11.27
2022-11-19T06:17:41.838Z,11.40
2022-11-19T06:20:11.958Z,10.20
2022-11-19T06:22:40.155Z,11.53
2022-11-19T06:25:09.221Z,11.87
2022-11-19T06:27:37.097Z,11.30
2022-11-19T06:30:05.923Z,11.70
2022-11-19T06:32:33.828Z,11.23
2022-11-19T06:35:01.630Z,11.20
2022-11-19T06:37:31.425Z,11.50
2022-11-19T06:39:59.444Z,11.30
2022-11-19T06:42:39.845Z,11.10
2022-11-19T06:45:09.730Z,9.97
2022-11-19T06:47:38.275Z,11.03
2022-11-19T06:50:07.372Z,10.87
2022-11-19T06:52:36.673Z,12.53
2022-11-19T06:55:05.066Z,12.20
2022-11-19T06:57:32.955Z,11.40
2022-11-19T07:00:00.772Z,10.83
2022-11-19T07:02:28.648Z,11.30
2022-11-19T07:04:56.456Z,12.20
2022-11-19T07:07:24.312Z,12.20
2022-11-19T07:09:53.542Z,11.90
2022-11-19T07:12:21.438Z,10.70
2022-11-19T07:14:49.320Z,13.03
2022-11-19T07:17:17.206Z,10.87
2022-11-19T07:19:45.157Z,11.63
2022-11-19T07:22:12.981Z,10.13
2022-11-19T07:24:40.802Z,12.80
2022-11-19T07:27:09.970Z,13.00
2022-11-19T07:29:38.715Z,11.57
2022-11-19T07:32:06.715Z,13.40
2022-11-19T07:34:34.521Z,11.70
2022-11-19T07:37:02.497Z,11.80
2022-11-19T07:39:30.522Z,12.40
2022-11-19T07:42:30.327Z,11.43
2022-11-19T07:44:59.536Z,12.40
2022-11-19T07:47:27.462Z,13.00
2022-11-19T07:49:55.276Z,12.10
2022-11-19T07:52:23.174Z,11.30
2022-11-19T07:54:50.976Z,11.90
2022-11-19T07:57:19.033Z,11.57
2022-11-19T07:59:46.860Z,12.67
2022-11-19T08:02:17.228Z,12.90
2022-11-19T08:04:45.089Z,11.70
2022-11-19T08:07:12.980Z,11.13
2022-11-19T08:09:40.831Z,11.60
2022-11-19T08:12:08.983Z,14.43
2022-11-19T08:14:36.849Z,13.15
2022-11-19T08:17:22.181Z,12.00
2022-11-19T08:19:51.384Z,11.17
2022-11-19T08:22:19.257Z,10.90
2022-11-19T08:24:47.088Z,11.80
2022-11-19T08:27:15.013Z,14.20
2022-11-19T08:29:42.842Z,11.77
2022-11-19T08:32:10.672Z,12.50
2022-11-19T08:34:38.460Z,12.17
2022-11-19T08:37:07.983Z,11.07
2022-11-19T08:39:35.834Z,11.50
2022-11-19T08:42:21.368Z,11.43
2022-11-19T08:44:51.229Z,11.10
2022-11-19T08:47:21.083Z,10.67
2022-11-19T08:49:48.912Z,11.40
2022-11-19T08:52:18.085Z,11.57
2022-11-19T08:54:45.946Z,10.60
2022-11-19T08:57:13.813Z,10.73
2022-11-19T08:59:41.654Z,12.00
2022-11-19T09:02:11.289Z,10.33
2022-11-19T09:04:39.167Z,12.03
2022-11-19T09:07:07.038Z,13.43
2022-11-19T09:09:36.336Z,11.77
2022-11-19T09:12:04.428Z,12.47
2022-11-19T09:14:32.320Z,11.00
2022-11-19T09:17:00.112Z,11.73
2022-11-19T09:19:28.116Z,11.10
2022-11-19T09:21:56.021Z,10.70
2022-11-19T09:24:23.830Z,10.43
2022-11-19T09:26:53.491Z,10.73
2022-11-19T09:29:22.106Z,11.47
2022-11-19T09:31:49.956Z,10.83
2022-11-19T09:34:17.967Z,10.40
2022-11-19T09:40:35.143Z,10.00
2022-11-19T09:43:15.676Z,10.13
2022-11-19T09:45:54.761Z,9.27
2022-11-19T09:48:32.495Z,9.17
2022-11-19T09:51:06.612Z,10.07
2022-11-19T09:53:40.329Z,10.13
2022-11-19T09:56:10.982Z,10.00
2022-11-19T09:58:43.924Z,10.00
2022-11-19T10:01:14.314Z,9.50
2022-11-19T10:03:45.485Z,9.53
2022-11-19T10:06:23.843Z,9.00
2022-11-19T10:09:10.870Z,9.73
2022-11-19T10:11:50.261Z,9.40
2022-11-19T10:14:37.974Z,10.17
2022-11-19T10:17:15.903Z,9.93
2022-11-19T10:19:54.650Z,9.40
2022-11-19T10:22:25.679Z,10.27
2022-11-19T10:25:00.528Z,8.67
2022-11-19T10:27:33.390Z,10.67
2022-11-19T10:30:13.356Z,9.03
2022-11-19T10:32:43.987Z,8.37
2022-11-19T10:35:19.460Z,8.60
2022-11-19T10:37:55.688Z,8.70
2022-11-19T10:40:26.200Z,7.27
2022-11-19T10:42:58.203Z,9.30
2022-11-19T10:45:30.025Z,8.37
2022-11-19T10:48:09.139Z,8.30
2022-11-19T10:50:41.925Z,7.03
2022-11-19T10:53:16.625Z,7.13
2022-11-19T10:55:54.154Z,8.30
2022-11-19T10:58:26.029Z,8.20
2022-11-19T11:00:57.473Z,7.70
2022-11-19T11:03:28.226Z,7.40
2022-11-19T11:05:59.385Z,8.17
2022-11-19T11:08:27.416Z,7.27
2022-11-19T11:10:55.869Z,6.50
2022-11-19T11:13:54.660Z,6.70
2022-11-19T11:16:26.942Z,7.40
2022-11-19T11:18:57.507Z,7.70
2022-11-19T11:21:32.726Z,7.80
2022-11-19T11:24:02.623Z,8.07
2022-11-19T11:26:33.602Z,8.50
2022-11-19T11:29:04.487Z,7.57
2022-11-19T11:31:36.815Z,8.37
2022-11-19T11:34:06.307Z,8.47
2022-11-19T11:36:37.034Z,6.87
2022-11-19T11:39:07.113Z,7.20
2022-11-19T11:42:05.269Z,7.40
2022-11-19T11:44:28.628Z,5.83
2022-11-19T11:46:59.792Z,6.50
2022-11-19T11:49:31.771Z,8.57
2022-11-19T11:52:08.312Z,8.00
2022-11-19T11:54:36.713Z,8.10
2022-11-19T11:57:17.946Z,8.50
2022-11-19T11:59:46.390Z,8.17
2022-11-19T12:02:29.870Z,7.97
2022-11-19T12:05:04.498Z,6.63
2022-11-19T12:08:13.772Z,7.87
2022-11-19T12:10:50.588Z,6.50
2022-11-19T12:13:50.229Z,7.53
2022-11-19T12:16:26.262Z,6.43
2022-11-19T12:19:10.785Z,8.40
2022-11-19T12:21:50.747Z,6.10
2022-11-19T12:24:40.329Z,6.20
2022-11-19T12:27:17.809Z,7.10
2022-11-19T12:30:02.153Z,7.20
2022-11-19T12:32:51.093Z,7.13
2022-11-19T12:35:35.578Z,6.90
2022-11-19T12:38:21.476Z,5.30
2022-11-19T12:40:58.858Z,6.30
2022-11-19T12:43:50.846Z,6.73
2022-11-19T12:46:23.889Z,6.83
2022-11-19T12:49:12.406Z,6.80
2022-11-19T12:51:52.957Z,6.67
2022-11-19T12:54:35.136Z,6.67
2022-11-19T12:57:19.155Z,6.20
2022-11-19T13:00:04.751Z,6.37
2022-11-19T13:02:38.576Z,6.60
2022-11-19T13:05:13.245Z,6.10
2022-11-19T13:07:46.580Z,6.77
2022-11-19T13:10:19.531Z,6.07
2022-11-19T13:12:51.047Z,6.40
2022-11-19T13:15:23.068Z,7.17
2022-11-19T13:17:54.532Z,6.90
2022-11-19T13:20:27.515Z,5.47
2022-11-19T13:23:00.758Z,7.53
2022-11-19T13:25:32.595Z,12.53
2022-11-19T13:28:03.823Z,8.07
2022-11-19T13:30:33.824Z,6.50
2022-11-19T13:33:07.563Z,8.43
2022-11-19T13:35:44.231Z,7.20
2022-11-19T13:38:19.675Z,7.53
2022-11-19T13:40:53.143Z,6.73
2022-11-19T13:43:40.201Z,7.00
2022-11-19T13:46:21.417Z,8.00
2022-11-19T13:48:56.129Z,7.67
2022-11-19T13:51:29.921Z,6.87
2022-11-19T13:54:03.247Z,6.77
2022-11-19T13:56:41.220Z,7.80
2022-11-19T13:59:22.543Z,6.83
2022-11-19T14:02:18.992Z,6.67
2022-11-19T14:05:25.889Z,8.40
2022-11-19T14:08:10.363Z,6.70
2022-11-19T14:10:51.857Z,7.90
2022-11-19T14:13:33.623Z,6.30
2022-11-19T14:16:33.494Z,6.80
2022-11-19T14:19:22.196Z,6.43
2022-11-19T14:22:10.586Z,6.30
2022-11-19T14:25:14.717Z,6.50
2022-11-19T14:27:44.645Z,6.63
2022-11-19T14:30:18.823Z,6.37
2022-11-19T14:32:50.302Z,6.80
2022-11-19T14:35:38.190Z,6.70
2022-11-19T14:38:33.366Z,7.20
2022-11-19T14:41:30.512Z,7.67
2022-11-19T14:44:10.694Z,6.80
2022-11-19T14:46:40.552Z,6.93
2022-11-19T14:49:26.685Z,7.20
2022-11-19T14:51:56.915Z,7.83
2022-11-19T14:54:31.799Z,6.83
2022-11-19T14:57:14.971Z,6.83
2022-11-19T14:59:48.160Z,7.13
2022-11-19T15:02:25.785Z,7.50
2022-11-19T15:04:58.473Z,6.93
2022-11-19T15:07:36.646Z,6.07
2022-11-19T15:10:31.150Z,6.60
2022-11-19T15:13:32.975Z,6.90
2022-11-19T15:16:10.277Z,6.80
2022-11-19T15:19:17.436Z,6.90
2022-11-19T15:22:21.413Z,6.70
2022-11-19T15:25:21.850Z,6.50
2022-11-19T15:27:59.759Z,7.50
2022-11-19T15:30:41.507Z,6.47
2022-11-19T15:33:50.949Z,6.97
2022-11-19T15:36:36.265Z,7.33
2022-11-19T15:39:13.028Z,9.38
2022-11-19T15:42:00.162Z,6.87
2022-11-19T15:44:35.213Z,8.20
2022-11-19T15:47:06.685Z,6.60
2022-11-19T15:49:47.871Z,7.33
2022-11-19T15:52:26.438Z,7.23
2022-11-19T15:55:11.623Z,6.70
2022-11-19T15:57:44.051Z,7.57
2022-11-19T16:00:17.616Z,7.43
2022-11-19T16:02:48.370Z,7.50
2022-11-19T16:05:21.209Z,8.10
2022-11-19T16:07:50.745Z,8.17
2022-11-19T16:10:23.540Z,7.20
2022-11-19T16:13:12.580Z,9.00
2022-11-19T16:16:05.094Z,9.63
2022-11-19T16:18:32.930Z,9.37
2022-11-19T16:21:00.988Z,8.73
2022-11-19T16:23:30.174Z,8.00
2022-11-19T16:26:03.101Z,7.53
2022-11-19T16:28:31.406Z,7.67
2022-11-19T16:31:02.528Z,6.20
2022-11-19T16:33:33.153Z,6.60
2022-11-19T16:36:13.325Z,6.57
2022-11-19T16:38:46.786Z,7.57
2022-11-19T16:41:34.053Z,7.60
2022-11-19T16:44:05.831Z,7.90
2022-11-19T16:46:35.993Z,6.00
2022-11-19T16:49:04.686Z,7.10
2022-11-19T16:51:38.146Z,7.43
2022-11-19T16:54:10.022Z,8.33
2022-11-19T16:56:43.437Z,6.93
2022-11-19T16:59:19.410Z,7.40
2022-11-19T17:01:53.557Z,7.17
2022-11-19T17:04:22.558Z,7.50
2022-11-19T17:06:50.526Z,8.10
2022-11-19T17:09:34.728Z,7.67
2022-11-19T17:12:20.655Z,7.20
2022-11-19T17:14:55.346Z,7.97
2022-11-19T17:17:41.717Z,7.77
2022-11-19T17:20:43.026Z,7.10
2022-11-19T17:23:15.917Z,6.70
2022-11-19T17:25:50.022Z,7.20
2022-11-19T17:28:21.015Z,6.23
2022-11-19T17:30:50.500Z,6.70
2022-11-19T17:33:20.698Z,7.30
2022-11-19T17:35:49.337Z,6.03
2022-11-19T17:38:19.481Z,5.87
2022-11-19T17:40:50.216Z,6.00
2022-11-19T17:43:39.102Z,4.77
2022-11-19T17:46:07.131Z,4.57
2022-11-19T17:48:35.937Z,3.33
2022-11-19T17:51:03.766Z,3.13
2022-11-19T17:53:31.649Z,3.27
2022-11-19T17:56:02.914Z,5.60
2022-11-19T17:58:30.791Z,6.23
2022-11-19T18:00:58.716Z,5.50
2022-11-19T18:03:26.532Z,5.10
2022-11-19T18:05:54.683Z,5.40
2022-11-19T18:08:22.533Z,5.63
2022-11-19T18:10:50.737Z,5.00
2022-11-19T18:13:25.086Z,4.53
2022-11-19T18:15:52.932Z,4.40
2022-11-19T18:18:20.755Z,5.10
2022-11-19T18:20:50.032Z,4.70
2022-11-19T18:23:17.933Z,4.70
2022-11-19T18:25:46.165Z,4.00
2022-11-19T18:28:14.047Z,4.67
2022-11-19T18:30:43.267Z,4.50
2022-11-19T18:33:11.572Z,4.07
2022-11-19T18:35:39.384Z,4.20
2022-11-19T18:38:07.201Z,4.37
2022-11-19T18:40:36.366Z,4.37
2022-11-19T18:43:21.934Z,3.80
2022-11-19T18:45:51.122Z,3.60
2022-11-19T18:48:18.927Z,3.43
2022-11-19T18:50:46.806Z,3.50
2022-11-19T18:53:14.932Z,3.13
2022-11-19T18:55:42.823Z,2.80
2022-11-19T18:58:10.654Z,3.23
2022-11-19T19:00:38.522Z,3.73
2022-11-19T19:03:10.913Z,3.57
2022-11-19T19:05:38.753Z,2.90
2022-11-19T19:08:06.704Z,3.60
2022-11-19T19:10:34.800Z,3.10
2022-11-19T19:13:01.658Z,3.30
2022-11-19T19:15:29.530Z,3.70
2022-11-19T19:17:57.401Z,3.73
2022-11-19T19:20:26.605Z,3.83
2022-11-19T19:22:54.847Z,4.47
2022-11-19T19:25:22.681Z,3.70
2022-11-19T19:27:50.486Z,4.50
2022-11-19T19:30:18.491Z,4.57
2022-11-19T19:32:46.337Z,4.17
2022-11-19T19:35:14.348Z,4.97
2022-11-19T19:37:43.513Z,4.03
2022-11-19T19:40:12.620Z,4.13
2022-11-19T19:42:41.478Z,4.90
2022-11-19T19:45:10.347Z,4.30
2022-11-19T19:47:38.246Z,5.03
2022-11-19T19:50:06.722Z,4.97
2022-11-19T19:52:34.654Z,5.10
2022-11-19T19:55:03.924Z,4.90
2022-11-19T19:57:31.802Z,4.93
2022-11-19T19:59:59.737Z,4.40
2022-11-19T20:02:27.534Z,5.23
2022-11-19T20:04:55.406Z,3.30
2022-11-19T20:07:23.271Z,4.40
2022-11-19T20:09:51.145Z,4.60
2022-11-19T20:12:20.339Z,4.30
2022-11-19T20:14:48.230Z,3.80
2022-11-19T20:17:16.127Z,4.00
2022-11-19T20:19:43.951Z,4.20
2022-11-19T20:22:11.814Z,3.50
2022-11-19T20:24:39.669Z,3.90
2022-11-19T20:27:07.539Z,4.80
2022-11-19T20:29:36.693Z,2.90
2022-11-19T20:32:04.750Z,4.10
2022-11-19T20:34:32.621Z,5.77
2022-11-19T20:37:00.488Z,3.43
2022-11-19T20:39:28.296Z,3.33
2022-11-19T20:42:13.786Z,3.50
2022-11-19T20:44:42.976Z,3.13
2022-11-19T20:47:10.824Z,3.50
2022-11-19T20:49:39.349Z,3.90
2022-11-19T20:52:07.510Z,3.80
2022-11-19T20:54:35.658Z,4.50
2022-11-19T20:57:04.142Z,3.60
2022-11-19T20:59:32.279Z,3.43
2022-11-19T21:02:01.535Z,3.77
2022-11-19T21:04:31.324Z,4.50
2022-11-19T21:06:59.275Z,3.80
2022-11-19T21:09:27.238Z,4.00
2022-11-19T21:11:55.169Z,3.87
2022-11-19T21:14:23.019Z,4.13
2022-11-19T21:16:50.934Z,3.67
2022-11-19T21:19:20.408Z,4.40
2022-11-19T21:21:48.517Z,3.83
2022-11-19T21:24:16.536Z,4.47
2022-11-19T21:26:44.978Z,3.57
2022-11-19T21:29:13.006Z,4.50
2022-11-19T21:31:42.190Z,4.70
2022-11-19T21:34:12.118Z,3.90
2022-11-19T21:36:43.092Z,4.30
2022-11-19T21:39:11.506Z,4.00
2022-11-19T21:41:39.446Z,3.83
2022-11-19T21:44:08.199Z,3.60
2022-11-19T21:46:36.608Z,4.90
2022-11-19T21:49:05.136Z,3.60
2022-11-19T21:51:33.321Z,4.10
2022-11-19T21:54:03.038Z,4.20
2022-11-19T21:56:35.528Z,3.90
2022-11-19T21:59:06.570Z,4.23
2022-11-19T22:01:34.779Z,4.30
2022-11-19T22:04:02.894Z,3.80
2022-11-19T22:06:31.770Z,4.00
2022-11-19T22:08:59.639Z,4.10
2022-11-19T22:11:32.036Z,3.50
2022-11-19T22:14:02.030Z,3.83
2022-11-19T22:16:30.617Z,4.43
2022-11-19T22:18:58.481Z,3.87
2022-11-19T22:21:29.221Z,3.27
2022-11-19T22:23:57.479Z,4.13
2022-11-19T22:26:26.217Z,4.60
2022-11-19T22:28:55.748Z,3.40
2022-11-19T22:31:26.520Z,3.83
2022-11-19T22:33:55.394Z,5.00
2022-11-19T22:36:23.998Z,3.60
2022-11-19T22:38:52.582Z,4.00
2022-11-19T22:41:22.968Z,4.13
2022-11-19T22:43:51.446Z,4.53
2022-11-19T22:46:21.513Z,4.63
2022-11-19T22:48:49.684Z,4.43
2022-11-19T22:51:20.055Z,4.40
2022-11-19T22:53:51.388Z,4.93
2022-11-19T22:56:23.133Z,3.80
2022-11-19T22:58:52.597Z,4.80
2022-11-19T23:01:24.574Z,4.17
2022-11-19T23:03:53.964Z,4.50
2022-11-19T23:06:22.867Z,4.10
2022-11-19T23:08:51.479Z,3.73
2022-11-19T23:11:42.164Z,4.37
2022-11-19T23:14:11.181Z,4.97
2022-11-19T23:16:40.961Z,4.20
2022-11-19T23:19:09.687Z,4.13
2022-11-19T23:21:37.968Z,4.53
2022-11-19T23:24:07.250Z,4.57
2022-11-19T23:26:35.649Z,4.50
2022-11-19T23:29:04.014Z,4.00
2022-11-19T23:31:33.357Z,3.77
2022-11-19T23:34:02.740Z,4.53
2022-11-19T23:36:32.194Z,4.27
2022-11-19T23:39:00.684Z,4.40
2022-11-19T23:41:31.907Z,4.53
2022-11-19T23:43:59.792Z,3.73
2022-11-19T23:46:29.063Z,5.40
2022-11-19T23:48:58.653Z,4.27
2022-11-19T23:51:30.119Z,4.30
2022-11-19T23:53:58.652Z,3.80
2022-11-19T23:56:27.722Z,4.47
2022-11-19T23:58:55.627Z,4.67
